sensor_id;sensor_type;location;lat;lon;timestamp;pressure;altitude;pressure_sealevel;temperature;humidity
42385;BME280;28042;43.986;22.860;2023-04-19T00:00:38;101041.88;;;9.91;100.00
42385;BME280;28042;43.986;22.860;2023-04-19T00:03:08;101034.56;;;9.91;100.00
42385;BME280;28042;43.986;22.860;2023-04-19T00:05:34;101034.38;;;9.93;100.00
42385;BME280;28042;43.986;22.860;2023-04-19T00:08:00;101036.81;;;10.03;100.00
42385;BME280;28042;43.986;22.860;2023-04-19T00:10:25;101031.06;;;9.98;100.00
42385;BME280;28042;43.986;22.860;2023-04-19T00:12:51;101038.50;;;10.04;100.00
42385;BME280;28042;43.986;22.860;2023-04-19T00:15:17;100986.97;;;9.79;100.00
42385;BME280;28042;43.986;22.860;2023-04-19T00:17:43;101020.84;;;10.00;100.00
42385;BME280;28042;43.986;22.860;2023-04-19T00:20:09;100978.81;;;9.79;100.00
42385;BME280;28042;43.986;22.860;2023-04-19T00:22:37;101025.06;;;10.02;100.00
42385;BME280;28042;43.986;22.860;2023-04-19T00:25:03;101026.31;;;10.00;100.00
42385;BME280;28042;43.986;22.860;2023-04-19T00:27:29;100978.88;;;9.71;100.00
42385;BME280;28042;43.986;22.860;2023-04-19T00:29:54;100975.97;;;9.73;100.00
42385;BME280;28042;43.986;22.860;2023-04-19T00:32:21;101009.84;;;9.93;100.00
42385;BME280;28042;43.986;22.860;2023-04-19T00:34:47;101024.56;;;9.99;100.00
42385;BME280;28042;43.986;22.860;2023-04-19T00:37:12;101000.53;;;9.87;100.00
42385;BME280;28042;43.986;22.860;2023-04-19T00:39:37;101021.19;;;9.97;100.00
42385;BME280;28042;43.986;22.860;2023-04-19T00:42:03;101011.91;;;9.91;100.00
42385;BME280;28042;43.986;22.860;2023-04-19T00:44:28;100979.66;;;9.65;100.00
42385;BME280;28042;43.986;22.860;2023-04-19T00:46:55;100972.84;;;9.61;100.00
42385;BME280;28042;43.986;22.860;2023-04-19T00:49:22;101031.16;;;9.89;100.00
42385;BME280;28042;43.986;22.860;2023-04-19T00:51:48;101010.84;;;9.77;100.00
42385;BME280;28042;43.986;22.860;2023-04-19T00:54:15;101013.38;;;9.79;100.00
42385;BME280;28042;43.986;22.860;2023-04-19T00:56:41;100970.50;;;9.58;100.00
42385;BME280;28042;43.986;22.860;2023-04-19T00:59:06;101014.72;;;9.83;100.00
42385;BME280;28042;43.986;22.860;2023-04-19T01:01:34;101000.69;;;9.71;100.00
42385;BME280;28042;43.986;22.860;2023-04-19T01:04:01;101013.75;;;9.76;100.00
42385;BME280;28042;43.986;22.860;2023-04-19T01:06:27;101018.72;;;9.72;100.00
42385;BME280;28042;43.986;22.860;2023-04-19T01:08:54;101002.94;;;9.68;100.00
42385;BME280;28042;43.986;22.860;2023-04-19T01:11:22;101005.38;;;9.77;100.00
42385;BME280;28042;43.986;22.860;2023-04-19T01:13:47;100989.19;;;9.61;100.00
42385;BME280;28042;43.986;22.860;2023-04-19T01:16:13;100964.41;;;9.56;100.00
42385;BME280;28042;43.986;22.860;2023-04-19T01:18:38;101000.41;;;9.81;100.00
42385;BME280;28042;43.986;22.860;2023-04-19T01:21:06;101003.97;;;9.81;100.00
42385;BME280;28042;43.986;22.860;2023-04-19T01:23:32;101001.16;;;9.75;100.00
42385;BME280;28042;43.986;22.860;2023-04-19T01:25:57;100949.91;;;9.41;100.00
42385;BME280;28042;43.986;22.860;2023-04-19T01:28:23;100941.81;;;9.32;100.00
42385;BME280;28042;43.986;22.860;2023-04-19T01:30:48;100978.56;;;9.51;100.00
42385;BME280;28042;43.986;22.860;2023-04-19T01:33:15;100938.78;;;9.27;100.00
42385;BME280;28042;43.986;22.860;2023-04-19T01:35:41;100989.94;;;9.55;100.00
42385;BME280;28042;43.986;22.860;2023-04-19T01:38:07;100983.47;;;9.56;100.00
42385;BME280;28042;43.986;22.860;2023-04-19T01:40:32;100982.44;;;9.57;100.00
42385;BME280;28042;43.986;22.860;2023-04-19T01:42:58;100932.63;;;9.33;100.00
42385;BME280;28042;43.986;22.860;2023-04-19T01:45:23;100920.09;;;9.24;100.00
42385;BME280;28042;43.986;22.860;2023-04-19T01:47:50;100979.25;;;9.68;100.00
42385;BME280;28042;43.986;22.860;2023-04-19T01:50:15;100925.09;;;9.35;100.00
42385;BME280;28042;43.986;22.860;2023-04-19T01:52:41;100965.91;;;9.58;100.00
42385;BME280;28042;43.986;22.860;2023-04-19T01:55:07;100923.78;;;9.31;100.00
42385;BME280;28042;43.986;22.860;2023-04-19T01:57:32;100963.91;;;9.52;100.00
42385;BME280;28042;43.986;22.860;2023-04-19T01:59:58;100923.03;;;9.23;100.00
42385;BME280;28042;43.986;22.860;2023-04-19T02:02:24;100959.47;;;9.37;100.00
42385;BME280;28042;43.986;22.860;2023-04-19T02:04:49;100908.69;;;9.06;100.00
42385;BME280;28042;43.986;22.860;2023-04-19T02:07:14;100940.66;;;9.27;100.00
42385;BME280;28042;43.986;22.860;2023-04-19T02:09:40;100942.53;;;9.26;100.00
42385;BME280;28042;43.986;22.860;2023-04-19T02:12:05;100960.69;;;9.34;100.00
42385;BME280;28042;43.986;22.860;2023-04-19T02:14:31;100946.22;;;9.33;100.00
42385;BME280;28042;43.986;22.860;2023-04-19T02:16:57;100949.72;;;9.42;100.00
42385;BME280;28042;43.986;22.860;2023-04-19T02:19:22;100949.16;;;9.47;100.00
42385;BME280;28042;43.986;22.860;2023-04-19T02:21:48;100950.88;;;9.48;100.00
42385;BME280;28042;43.986;22.860;2023-04-19T02:24:14;100894.56;;;9.25;100.00
42385;BME280;28042;43.986;22.860;2023-04-19T02:26:39;100942.63;;;9.56;100.00
42385;BME280;28042;43.986;22.860;2023-04-19T02:29:05;100948.06;;;9.56;100.00
42385;BME280;28042;43.986;22.860;2023-04-19T02:31:31;100914.31;;;9.42;100.00
42385;BME280;28042;43.986;22.860;2023-04-19T02:33:57;100889.53;;;9.37;100.00
42385;BME280;28042;43.986;22.860;2023-04-19T02:36:22;100945.44;;;9.62;100.00
42385;BME280;28042;43.986;22.860;2023-04-19T02:38:48;100890.75;;;9.34;100.00
42385;BME280;28042;43.986;22.860;2023-04-19T02:41:13;100934.28;;;9.57;100.00
42385;BME280;28042;43.986;22.860;2023-04-19T02:43:38;100925.59;;;9.54;100.00
42385;BME280;28042;43.986;22.860;2023-04-19T02:46:04;100932.09;;;9.53;100.00
42385;BME280;28042;43.986;22.860;2023-04-19T02:48:30;100880.66;;;9.20;100.00
42385;BME280;28042;43.986;22.860;2023-04-19T02:50:56;100891.00;;;9.25;100.00
42385;BME280;28042;43.986;22.860;2023-04-19T02:53:21;100875.69;;;9.09;100.00
42385;BME280;28042;43.986;22.860;2023-04-19T02:55:47;100921.34;;;9.37;100.00
42385;BME280;28042;43.986;22.860;2023-04-19T02:58:12;100929.81;;;9.42;100.00
42385;BME280;28042;43.986;22.860;2023-04-19T03:00:38;100932.34;;;9.43;100.00
42385;BME280;28042;43.986;22.860;2023-04-19T03:03:03;100924.56;;;9.40;100.00
42385;BME280;28042;43.986;22.860;2023-04-19T03:05:29;100878.03;;;9.12;100.00
42385;BME280;28042;43.986;22.860;2023-04-19T03:07:54;100917.25;;;9.41;100.00
42385;BME280;28042;43.986;22.860;2023-04-19T03:10:20;100924.28;;;9.50;100.00
42385;BME280;28042;43.986;22.860;2023-04-19T03:12:45;100921.91;;;9.47;100.00
42385;BME280;28042;43.986;22.860;2023-04-19T03:15:11;100874.22;;;9.21;100.00
42385;BME280;28042;43.986;22.860;2023-04-19T03:17:37;100913.28;;;9.43;100.00
42385;BME280;28042;43.986;22.860;2023-04-19T03:20:02;100863.09;;;9.08;100.00
42385;BME280;28042;43.986;22.860;2023-04-19T03:22:35;100907.81;;;9.28;100.00
42385;BME280;28042;43.986;22.860;2023-04-19T03:25:01;100860.44;;;9.00;100.00
42385;BME280;28042;43.986;22.860;2023-04-19T03:27:26;100905.59;;;9.32;100.00
42385;BME280;28042;43.986;22.860;2023-04-19T03:29:52;100910.91;;;9.25;100.00
42385;BME280;28042;43.986;22.860;2023-04-19T03:32:17;100874.44;;;8.97;100.00
42385;BME280;28042;43.986;22.860;2023-04-19T03:34:42;100883.25;;;8.99;100.00
42385;BME280;28042;43.986;22.860;2023-04-19T03:37:08;100869.06;;;8.89;100.00
42385;BME280;28042;43.986;22.860;2023-04-19T03:39:33;100913.44;;;9.12;100.00
42385;BME280;28042;43.986;22.860;2023-04-19T03:41:59;100886.09;;;8.83;100.00
42385;BME280;28042;43.986;22.860;2023-04-19T03:44:25;100921.81;;;9.02;100.00
42385;BME280;28042;43.986;22.860;2023-04-19T03:46:51;100876.78;;;8.77;100.00
42385;BME280;28042;43.986;22.860;2023-04-19T03:49:16;100917.53;;;9.08;100.00
42385;BME280;28042;43.986;22.860;2023-04-19T03:51:42;100918.88;;;9.12;100.00
42385;BME280;28042;43.986;22.860;2023-04-19T03:54:07;100919.09;;;9.02;100.00
42385;BME280;28042;43.986;22.860;2023-04-19T03:56:33;100925.38;;;9.03;100.00
42385;BME280;28042;43.986;22.860;2023-04-19T03:58:58;100874.63;;;8.72;100.00
42385;BME280;28042;43.986;22.860;2023-04-19T04:01:25;100921.41;;;8.91;100.00
42385;BME280;28042;43.986;22.860;2023-04-19T04:03:51;100919.34;;;8.93;100.00
42385;BME280;28042;43.986;22.860;2023-04-19T04:06:16;100902.03;;;8.86;100.00
42385;BME280;28042;43.986;22.860;2023-04-19T04:08:42;100936.03;;;8.90;100.00
42385;BME280;28042;43.986;22.860;2023-04-19T04:11:07;100882.19;;;8.62;100.00
42385;BME280;28042;43.986;22.860;2023-04-19T04:13:33;100895.91;;;8.69;100.00
42385;BME280;28042;43.986;22.860;2023-04-19T04:15:58;100927.88;;;8.90;100.00
42385;BME280;28042;43.986;22.860;2023-04-19T04:18:24;100909.22;;;8.87;100.00
42385;BME280;28042;43.986;22.860;2023-04-19T04:20:51;100872.09;;;8.71;100.00
42385;BME280;28042;43.986;22.860;2023-04-19T04:23:16;100920.31;;;9.00;100.00
42385;BME280;28042;43.986;22.860;2023-04-19T04:25:42;100919.22;;;9.09;100.00
42385;BME280;28042;43.986;22.860;2023-04-19T04:28:07;100911.63;;;9.04;100.00
42385;BME280;28042;43.986;22.860;2023-04-19T04:30:33;100911.34;;;9.14;100.00
42385;BME280;28042;43.986;22.860;2023-04-19T04:32:59;100909.41;;;9.23;100.00
42385;BME280;28042;43.986;22.860;2023-04-19T04:35:25;100914.94;;;9.29;100.00
42385;BME280;28042;43.986;22.860;2023-04-19T04:37:51;100869.44;;;9.23;100.00
42385;BME280;28042;43.986;22.860;2023-04-19T04:40:20;100861.84;;;9.33;100.00
42385;BME280;28042;43.986;22.860;2023-04-19T04:42:46;100869.44;;;9.38;100.00
42385;BME280;28042;43.986;22.860;2023-04-19T04:45:12;100905.72;;;9.68;100.00
42385;BME280;28042;43.986;22.860;2023-04-19T04:47:37;100862.63;;;9.57;100.00
42385;BME280;28042;43.986;22.860;2023-04-19T04:50:03;100918.97;;;10.01;100.00
42385;BME280;28042;43.986;22.860;2023-04-19T04:52:29;100855.84;;;9.82;100.00
42385;BME280;28042;43.986;22.860;2023-04-19T04:54:54;100904.09;;;10.18;100.00
42385;BME280;28042;43.986;22.860;2023-04-19T04:57:20;100892.34;;;10.17;100.00
42385;BME280;28042;43.986;22.860;2023-04-19T04:59:46;100854.50;;;10.08;100.00
42385;BME280;28042;43.986;22.860;2023-04-19T05:02:14;100845.66;;;10.06;100.00
42385;BME280;28042;43.986;22.860;2023-04-19T05:04:39;100848.25;;;10.14;100.00
42385;BME280;28042;43.986;22.860;2023-04-19T05:07:05;100836.06;;;10.10;100.00
42385;BME280;28042;43.986;22.860;2023-04-19T05:09:31;100883.56;;;10.52;100.00
42385;BME280;28042;43.986;22.860;2023-04-19T05:11:56;100868.81;;;10.46;100.00
42385;BME280;28042;43.986;22.860;2023-04-19T05:14:22;100877.84;;;10.46;100.00
42385;BME280;28042;43.986;22.860;2023-04-19T05:16:47;100885.25;;;10.53;100.00
42385;BME280;28042;43.986;22.860;2023-04-19T05:19:12;100834.72;;;10.35;100.00
42385;BME280;28042;43.986;22.860;2023-04-19T05:21:38;100832.19;;;10.34;100.00
42385;BME280;28042;43.986;22.860;2023-04-19T05:24:04;100886.69;;;10.70;100.00
42385;BME280;28042;43.986;22.860;2023-04-19T05:26:29;100889.78;;;10.67;100.00
42385;BME280;28042;43.986;22.860;2023-04-19T05:28:55;100835.00;;;10.62;100.00
42385;BME280;28042;43.986;22.860;2023-04-19T05:31:21;100847.19;;;10.66;100.00
42385;BME280;28042;43.986;22.860;2023-04-19T05:33:47;100820.41;;;10.76;100.00
42385;BME280;28042;43.986;22.860;2023-04-19T05:36:12;100878.44;;;11.34;100.00
42385;BME280;28042;43.986;22.860;2023-04-19T05:38:38;100842.03;;;11.27;100.00
42385;BME280;28042;43.986;22.860;2023-04-19T05:41:03;100862.22;;;11.60;100.00
42385;BME280;28042;43.986;22.860;2023-04-19T05:43:29;100890.81;;;11.86;100.00
42385;BME280;28042;43.986;22.860;2023-04-19T05:45:55;100825.28;;;11.65;100.00
42385;BME280;28042;43.986;22.860;2023-04-19T05:48:21;100833.31;;;11.79;100.00
42385;BME280;28042;43.986;22.860;2023-04-19T05:50:46;100871.88;;;12.26;100.00
42385;BME280;28042;43.986;22.860;2023-04-19T05:53:12;100819.91;;;12.26;100.00
42385;BME280;28042;43.986;22.860;2023-04-19T05:55:38;100876.41;;;12.80;100.00
42385;BME280;28042;43.986;22.860;2023-04-19T05:58:03;100859.59;;;12.96;100.00
42385;BME280;28042;43.986;22.860;2023-04-19T06:00:29;100809.22;;;12.84;100.00
42385;BME280;28042;43.986;22.860;2023-04-19T06:02:54;100853.25;;;13.02;100.00
42385;BME280;28042;43.986;22.860;2023-04-19T06:05:20;100849.28;;;13.05;100.00
42385;BME280;28042;43.986;22.860;2023-04-19T06:07:45;100818.28;;;12.91;100.00
42385;BME280;28042;43.986;22.860;2023-04-19T06:10:11;100799.53;;;12.74;100.00
42385;BME280;28042;43.986;22.860;2023-04-19T06:12:36;100819.13;;;13.11;100.00
42385;BME280;28042;43.986;22.860;2023-04-19T06:15:02;100813.03;;;13.36;100.00
42385;BME280;28042;43.986;22.860;2023-04-19T06:17:27;100856.88;;;13.36;100.00
42385;BME280;28042;43.986;22.860;2023-04-19T06:19:53;100854.75;;;13.44;100.00
42385;BME280;28042;43.986;22.860;2023-04-19T06:22:20;100786.91;;;13.13;100.00
42385;BME280;28042;43.986;22.860;2023-04-19T06:24:46;100835.78;;;13.43;100.00
42385;BME280;28042;43.986;22.860;2023-04-19T06:27:12;100843.81;;;13.31;100.00
42385;BME280;28042;43.986;22.860;2023-04-19T06:29:38;100810.09;;;12.97;100.00
42385;BME280;28042;43.986;22.860;2023-04-19T06:32:04;100856.88;;;13.49;100.00
42385;BME280;28042;43.986;22.860;2023-04-19T06:34:29;100865.50;;;13.46;100.00
42385;BME280;28042;43.986;22.860;2023-04-19T06:36:55;100822.13;;;13.29;100.00
42385;BME280;28042;43.986;22.860;2023-04-19T06:39:20;100809.66;;;13.40;100.00
42385;BME280;28042;43.986;22.860;2023-04-19T06:41:46;100866.31;;;13.66;100.00
42385;BME280;28042;43.986;22.860;2023-04-19T06:44:11;100823.16;;;13.28;100.00
42385;BME280;28042;43.986;22.860;2023-04-19T06:46:37;100862.78;;;13.39;100.00
42385;BME280;28042;43.986;22.860;2023-04-19T06:49:03;100855.19;;;13.35;100.00
42385;BME280;28042;43.986;22.860;2023-04-19T06:51:28;100810.06;;;13.37;100.00
42385;BME280;28042;43.986;22.860;2023-04-19T06:53:54;100870.75;;;13.67;100.00
42385;BME280;28042;43.986;22.860;2023-04-19T06:56:47;100828.00;;;13.40;100.00
42385;BME280;28042;43.986;22.860;2023-04-19T06:59:18;100867.59;;;13.44;100.00
42385;BME280;28042;43.986;22.860;2023-04-19T07:01:44;100821.91;;;13.05;100.00
42385;BME280;28042;43.986;22.860;2023-04-19T07:04:10;100828.84;;;13.07;100.00
42385;BME280;28042;43.986;22.860;2023-04-19T07:06:37;100813.44;;;12.99;100.00
42385;BME280;28042;43.986;22.860;2023-04-19T07:09:03;100873.06;;;13.17;100.00
42385;BME280;28042;43.986;22.860;2023-04-19T07:11:29;100870.13;;;12.99;100.00
42385;BME280;28042;43.986;22.860;2023-04-19T07:13:55;100846.31;;;12.80;100.00
42385;BME280;28042;43.986;22.860;2023-04-19T07:16:21;100829.03;;;12.72;100.00
42385;BME280;28042;43.986;22.860;2023-04-19T07:18:46;100822.28;;;12.82;100.00
42385;BME280;28042;43.986;22.860;2023-04-19T07:21:12;100860.88;;;13.13;100.00
42385;BME280;28042;43.986;22.860;2023-04-19T07:23:37;100858.56;;;13.23;100.00
42385;BME280;28042;43.986;22.860;2023-04-19T07:26:03;100825.66;;;13.37;100.00
42385;BME280;28042;43.986;22.860;2023-04-19T07:28:29;100822.69;;;13.45;100.00
42385;BME280;28042;43.986;22.860;2023-04-19T07:30:54;100827.09;;;13.59;100.00
42385;BME280;28042;43.986;22.860;2023-04-19T07:33:22;100873.25;;;13.75;100.00
42385;BME280;28042;43.986;22.860;2023-04-19T07:35:47;100833.00;;;13.63;100.00
42385;BME280;28042;43.986;22.860;2023-04-19T07:38:14;100874.72;;;13.84;100.00
42385;BME280;28042;43.986;22.860;2023-04-19T07:40:39;100828.56;;;13.68;100.00
42385;BME280;28042;43.986;22.860;2023-04-19T07:43:05;100861.34;;;14.08;100.00
42385;BME280;28042;43.986;22.860;2023-04-19T07:45:32;100817.13;;;13.84;100.00
42385;BME280;28042;43.986;22.860;2023-04-19T07:47:57;100817.81;;;14.18;100.00
42385;BME280;28042;43.986;22.860;2023-04-19T07:50:24;100863.19;;;14.65;100.00
42385;BME280;28042;43.986;22.860;2023-04-19T07:52:50;100856.25;;;14.94;100.00
42385;BME280;28042;43.986;22.860;2023-04-19T07:55:16;100864.19;;;15.03;100.00
42385;BME280;28042;43.986;22.860;2023-04-19T07:57:41;100808.25;;;15.22;100.00
42385;BME280;28042;43.986;22.860;2023-04-19T08:00:18;100842.97;;;15.60;96.58
42385;BME280;28042;43.986;22.860;2023-04-19T08:02:46;100807.50;;;15.51;96.31
42385;BME280;28042;43.986;22.860;2023-04-19T08:05:13;100837.34;;;16.09;96.36
42385;BME280;28042;43.986;22.860;2023-04-19T08:07:41;100847.75;;;15.89;92.21
42385;BME280;28042;43.986;22.860;2023-04-19T08:10:07;100834.50;;;15.61;95.26
42385;BME280;28042;43.986;22.860;2023-04-19T08:12:33;100844.25;;;15.64;93.76
42385;BME280;28042;43.986;22.860;2023-04-19T08:14:59;100847.00;;;15.64;93.87
42385;BME280;28042;43.986;22.860;2023-04-19T08:17:25;100850.59;;;15.58;92.90
42385;BME280;28042;43.986;22.860;2023-04-19T08:19:51;100823.63;;;15.48;93.68
42385;BME280;28042;43.986;22.860;2023-04-19T08:22:16;100844.78;;;15.91;95.80
42385;BME280;28042;43.986;22.860;2023-04-19T08:24:42;100790.91;;;15.65;93.99
42385;BME280;28042;43.986;22.860;2023-04-19T08:27:09;100850.78;;;15.63;93.90
42385;BME280;28042;43.986;22.860;2023-04-19T08:29:35;100834.44;;;15.68;95.90
42385;BME280;28042;43.986;22.860;2023-04-19T08:32:04;100801.19;;;15.51;92.36
42385;BME280;28042;43.986;22.860;2023-04-19T08:34:29;100830.34;;;15.52;93.65
42385;BME280;28042;43.986;22.860;2023-04-19T08:36:55;100756.75;;;15.11;96.25
42385;BME280;28042;43.986;22.860;2023-04-19T08:39:21;100835.75;;;15.40;92.26
42385;BME280;28042;43.986;22.860;2023-04-19T08:41:47;100777.97;;;15.04;96.95
42385;BME280;28042;43.986;22.860;2023-04-19T08:44:13;100829.38;;;15.46;94.38
42385;BME280;28042;43.986;22.860;2023-04-19T08:46:41;100817.31;;;15.47;92.96
42385;BME280;28042;43.986;22.860;2023-04-19T08:49:08;100790.50;;;15.18;91.67
42385;BME280;28042;43.986;22.860;2023-04-19T08:51:34;100825.13;;;15.69;92.90
42385;BME280;28042;43.986;22.860;2023-04-19T08:54:05;100822.91;;;15.77;90.80
42385;BME280;28042;43.986;22.860;2023-04-19T08:56:32;100782.16;;;15.31;92.81
42385;BME280;28042;43.986;22.860;2023-04-19T08:58:57;100817.03;;;15.74;92.04
42385;BME280;28042;43.986;22.860;2023-04-19T09:01:23;100817.94;;;15.68;91.77
42385;BME280;28042;43.986;22.860;2023-04-19T09:03:48;100812.44;;;15.68;92.83
42385;BME280;28042;43.986;22.860;2023-04-19T09:06:14;100776.34;;;15.39;91.34
42385;BME280;28042;43.986;22.860;2023-04-19T09:08:40;100769.00;;;15.33;91.62
42385;BME280;28042;43.986;22.860;2023-04-19T09:11:06;100759.38;;;15.24;88.91
42385;BME280;28042;43.986;22.860;2023-04-19T09:13:32;100820.66;;;15.49;87.62
42385;BME280;28042;43.986;22.860;2023-04-19T09:16:00;100754.50;;;15.26;86.01
42385;BME280;28042;43.986;22.860;2023-04-19T09:18:26;100815.81;;;15.70;86.35
42385;BME280;28042;43.986;22.860;2023-04-19T09:20:52;100808.38;;;16.07;86.34
42385;BME280;28042;43.986;22.860;2023-04-19T09:23:22;100819.59;;;16.05;83.34
42385;BME280;28042;43.986;22.860;2023-04-19T09:25:57;100811.34;;;16.05;85.32
42385;BME280;28042;43.986;22.860;2023-04-19T09:28:25;100769.31;;;15.98;85.28
42385;BME280;28042;43.986;22.860;2023-04-19T09:30:52;100804.72;;;16.43;84.30
42385;BME280;28042;43.986;22.860;2023-04-19T09:33:37;100795.97;;;16.46;81.71
42385;BME280;28042;43.986;22.860;2023-04-19T09:36:06;100784.63;;;16.24;79.36
42385;BME280;28042;43.986;22.860;2023-04-19T09:38:50;100807.13;;;16.81;80.37
42385;BME280;28042;43.986;22.860;2023-04-19T09:41:16;100789.06;;;16.97;80.32
42385;BME280;28042;43.986;22.860;2023-04-19T09:43:45;100755.69;;;16.63;79.83
42385;BME280;28042;43.986;22.860;2023-04-19T09:46:30;100802.69;;;16.69;78.34
42385;BME280;28042;43.986;22.860;2023-04-19T09:49:21;100805.22;;;16.82;80.02
42385;BME280;28042;43.986;22.860;2023-04-19T09:51:52;100750.22;;;17.10;81.75
42385;BME280;28042;43.986;22.860;2023-04-19T09:54:20;100804.88;;;17.37;78.98
42385;BME280;28042;43.986;22.860;2023-04-19T09:56:47;100750.78;;;17.71;78.61
42385;BME280;28042;43.986;22.860;2023-04-19T09:59:12;100779.94;;;18.19;75.35
42385;BME280;28042;43.986;22.860;2023-04-19T10:01:44;100790.59;;;17.63;75.49
42385;BME280;28042;43.986;22.860;2023-04-19T10:04:11;100784.69;;;17.95;78.48
42385;BME280;28042;43.986;22.860;2023-04-19T10:06:38;100740.13;;;17.51;78.89
42385;BME280;28042;43.986;22.860;2023-04-19T10:09:04;100747.44;;;17.45;74.99
42385;BME280;28042;43.986;22.860;2023-04-19T10:11:32;100737.31;;;16.87;74.67
42385;BME280;28042;43.986;22.860;2023-04-19T10:14:08;100751.56;;;16.96;76.16
42385;BME280;28042;43.986;22.860;2023-04-19T10:16:35;100782.22;;;16.88;77.20
42385;BME280;28042;43.986;22.860;2023-04-19T10:19:07;100784.50;;;16.91;78.85
42385;BME280;28042;43.986;22.860;2023-04-19T10:21:32;100757.44;;;16.46;77.41
42385;BME280;28042;43.986;22.860;2023-04-19T10:23:59;100797.06;;;16.45;79.97
42385;BME280;28042;43.986;22.860;2023-04-19T10:26:25;100786.97;;;16.39;77.98
42385;BME280;28042;43.986;22.860;2023-04-19T10:28:53;100780.44;;;16.22;83.88
42385;BME280;28042;43.986;22.860;2023-04-19T10:31:19;100785.94;;;16.22;87.37
42385;BME280;28042;43.986;22.860;2023-04-19T10:33:49;100771.03;;;16.29;88.98
42385;BME280;28042;43.986;22.860;2023-04-19T10:36:19;100784.78;;;16.59;86.67
42385;BME280;28042;43.986;22.860;2023-04-19T10:38:47;100768.38;;;16.64;84.77
42385;BME280;28042;43.986;22.860;2023-04-19T10:41:14;100766.44;;;16.95;81.75
42385;BME280;28042;43.986;22.860;2023-04-19T10:43:43;100751.78;;;17.18;80.00
42385;BME280;28042;43.986;22.860;2023-04-19T10:48:40;100711.78;;;16.92;73.52
42385;BME280;28042;43.986;22.860;2023-04-19T10:56:16;100700.50;;;16.93;76.37
42385;BME280;28042;43.986;22.860;2023-04-19T11:04:17;100746.16;;;17.48;79.19
42385;BME280;28042;43.986;22.860;2023-04-19T11:11:57;100717.75;;;17.88;76.41
42385;BME280;28042;43.986;22.860;2023-04-19T11:14:24;100681.50;;;17.56;71.02
42385;BME280;28042;43.986;22.860;2023-04-19T11:16:49;100672.75;;;17.47;68.62
42385;BME280;28042;43.986;22.860;2023-04-19T11:19:18;100719.47;;;17.65;71.06
42385;BME280;28042;43.986;22.860;2023-04-19T11:21:45;100678.66;;;17.39;72.81
42385;BME280;28042;43.986;22.860;2023-04-19T11:24:11;100713.13;;;18.05;68.89
42385;BME280;28042;43.986;22.860;2023-04-19T11:26:37;100672.13;;;18.14;68.47
42385;BME280;28042;43.986;22.860;2023-04-19T11:29:03;100659.13;;;18.43;67.68
42385;BME280;28042;43.986;22.860;2023-04-19T11:31:33;100672.00;;;18.54;65.75
42385;BME280;28042;43.986;22.860;2023-04-19T11:33:58;100703.84;;;18.73;66.07
42385;BME280;28042;43.986;22.860;2023-04-19T11:36:26;100701.75;;;18.80;62.83
42385;BME280;28042;43.986;22.860;2023-04-19T11:38:52;100700.53;;;19.10;66.13
42385;BME280;28042;43.986;22.860;2023-04-19T11:41:18;100707.63;;;19.39;62.50
42385;BME280;28042;43.986;22.860;2023-04-19T11:43:43;100707.53;;;18.62;59.87
42385;BME280;28042;43.986;22.860;2023-04-19T11:46:11;100709.34;;;18.40;62.16
42385;BME280;28042;43.986;22.860;2023-04-19T11:48:38;100710.16;;;18.69;62.46
42385;BME280;28042;43.986;22.860;2023-04-19T11:51:04;100702.13;;;18.39;60.83
42385;BME280;28042;43.986;22.860;2023-04-19T11:53:31;100654.75;;;18.30;63.88
42385;BME280;28042;43.986;22.860;2023-04-19T11:56:05;100689.84;;;18.63;64.27
42385;BME280;28042;43.986;22.860;2023-04-19T11:58:35;100694.88;;;19.00;62.56
42385;BME280;28042;43.986;22.860;2023-04-19T12:01:07;100693.81;;;19.23;62.32
42385;BME280;28042;43.986;22.860;2023-04-19T12:03:52;100685.19;;;19.19;63.12
42385;BME280;28042;43.986;22.860;2023-04-19T12:06:28;100640.03;;;18.58;60.56
42385;BME280;28042;43.986;22.860;2023-04-19T12:09:19;100669.56;;;19.08;62.08
42385;BME280;28042;43.986;22.860;2023-04-19T12:11:46;100677.84;;;19.08;61.20
42385;BME280;28042;43.986;22.860;2023-04-19T12:14:16;100669.16;;;18.99;59.98
42385;BME280;28042;43.986;22.860;2023-04-19T12:16:44;100683.91;;;18.54;59.87
42385;BME280;28042;43.986;22.860;2023-04-19T12:21:38;100690.69;;;18.01;60.38
42385;BME280;28042;43.986;22.860;2023-04-19T12:24:04;100679.63;;;17.85;61.20
42385;BME280;28042;43.986;22.860;2023-04-19T12:26:30;100637.50;;;17.49;62.73
42385;BME280;28042;43.986;22.860;2023-04-19T12:28:57;100680.34;;;17.68;61.90
42385;BME280;28042;43.986;22.860;2023-04-19T12:31:23;100669.19;;;18.03;62.94
42385;BME280;28042;43.986;22.860;2023-04-19T12:33:48;100671.31;;;18.13;62.93
42385;BME280;28042;43.986;22.860;2023-04-19T12:36:14;100663.41;;;18.33;63.65
42385;BME280;28042;43.986;22.860;2023-04-19T12:38:40;100640.03;;;18.41;63.88
42385;BME280;28042;43.986;22.860;2023-04-19T12:41:06;100649.66;;;18.55;60.17
42385;BME280;28042;43.986;22.860;2023-04-19T12:43:31;100653.09;;;18.79;60.06
42385;BME280;28042;43.986;22.860;2023-04-19T12:45:57;100640.75;;;19.26;58.73
42385;BME280;28042;43.986;22.860;2023-04-19T12:48:26;100628.34;;;19.28;55.71
42385;BME280;28042;43.986;22.860;2023-04-19T12:50:52;100586.91;;;19.33;53.78
42385;BME280;28042;43.986;22.860;2023-04-19T12:53:19;100579.28;;;19.45;51.17
42385;BME280;28042;43.986;22.860;2023-04-19T12:55:44;100639.16;;;20.00;49.90